Terminal Aerodrome Forecast
Issued by NWS Wilmington, NC

Home | Current Version | Previous Version | Text Only | Print | Product List | Glossary On
Versions: 1 2 3 4 5 6 7 8 9 10 11 12 13
000
FTUS42 KILM 012300 RRA
TAFMYR
TAF
KMYR 012343Z 0200/0224 20009KT P6SM VCSH SCT030 BKN050
     FM020500 20013G20KT P6SM -RA SCT015 BKN040
      TEMPO 0206/0208 4SM -RA BR BKN015
     FM021100 21019G27KT 6SM -RA BR SCT015 OVC035
     FM021500 22018G28KT 3SM RA BR OVC015
     FM021700 27020G28KT P6SM SCT020 BKN080
     FM021900 29022G32KT P6SM SCT035 SCT100
      AMD LTD TO CLD VIS AND WIND 0204/0211=

USA.gov is the U.S. government's official web portal to all federal, state and local government web resources and services.